METAR Data
IDs: Format: Raw Decoded Include TAF

Data at: 1705 UTC 03 Dec 2021

KJYR 031655Z AUTO 01020G25KT 10SM CLR 12/02 A3008 RMK AO2